Time;durP1;ratioP1;P1;durP2;ratioP2;P2;SDS_P1;SDS_P2;PMS_P1;PMS_P2;Temp;Humidity;BMP_temperature;BMP_pressure;BME280_temperature;BME280_humidity;BME280_pressure;Samples;Min_cycle;Max_cycle;Signal;HPM_P1;HPM_P2
2022/07/25 00:00:35;;;;;;;14.60;13.20;;;23.30;99.90;;;;;;5063233;28;20119;-61
2022/07/25 00:03:03;;;;;;;15.10;13.60;;;23.30;99.90;;;;;;5067291;28;20487;-64
2022/07/25 00:05:35;;;;;;;;;;;23.30;99.90;;;;;;5065346;28;20098;-65
2022/07/25 00:08:04;;;;;;;14.50;13.10;;;23.20;99.90;;;;;;5067489;28;20377;-63
2022/07/25 00:10:31;;;;;;;15.20;13.70;;;23.20;99.90;;;;;;5058163;28;20380;-62
2022/07/25 00:12:59;;;;;;;18.10;14.30;;;23.20;99.90;;;;;;5059059;28;20032;-62
2022/07/25 00:15:27;;;;;;;14.60;12.93;;;23.20;99.90;;;;;;5068334;28;20498;-63
2022/07/25 00:17:55;;;;;;;14.88;13.38;;;23.10;99.90;;;;;;5069479;28;20483;-62
2022/07/25 00:20:22;;;;;;;14.77;13.20;;;23.10;99.90;;;;;;5071230;28;20049;-66
2022/07/25 00:22:50;;;;;;;14.73;13.23;;;23.10;99.90;;;;;;5060675;28;20087;-67
2022/07/25 00:25:17;;;;;;;15.95;14.27;;;23.00;99.90;;;;;;5070948;28;20055;-61
2022/07/25 00:27:44;;;;;;;15.13;13.65;;;23.00;99.90;;;;;;5070677;28;20451;-61
2022/07/25 00:30:12;;;;;;;14.68;13.38;;;23.00;99.90;;;;;;5064691;28;20055;-63
2022/07/25 00:32:39;;;;;;;14.60;13.13;;;22.90;99.90;;;;;;5066907;28;20051;-61
2022/07/25 00:35:07;;;;;;;15.18;13.68;;;23.00;99.90;;;;;;5070803;28;20048;-62
2022/07/25 00:37:35;;;;;;;15.35;13.73;;;22.90;99.90;;;;;;5071245;28;20049;-61
2022/07/25 00:40:03;;;;;;;15.15;13.45;;;22.90;99.90;;;;;;5062683;28;20036;-60
2022/07/25 00:42:31;;;;;;;15.18;13.65;;;22.90;99.90;;;;;;5069422;28;20037;-61
2022/07/25 00:44:58;;;;;;;14.60;13.13;;;22.80;99.90;;;;;;5061895;28;20059;-61
2022/07/25 00:47:26;;;;;;;14.82;13.27;;;22.80;99.90;;;;;;5066714;28;20528;-61
2022/07/25 00:49:53;;;;;;;14.98;13.38;;;22.80;99.90;;;;;;5067087;28;20052;-62
2022/07/25 00:52:23;;;;;;;15.27;13.43;;;22.70;99.90;;;;;;5070052;28;20063;-62
2022/07/25 00:54:50;;;;;;;15.02;13.55;;;22.70;99.90;;;;;;5059920;28;20117;-62
2022/07/25 00:57:18;;;;;;;14.77;13.15;;;22.70;99.90;;;;;;5070570;28;20544;-62
2022/07/25 00:59:45;;;;;;;16.15;13.45;;;22.70;99.90;;;;;;5068585;28;20040;-62
2022/07/25 01:02:13;;;;;;;14.95;12.90;;;22.70;99.90;;;;;;5059903;28;20449;-62
2022/07/25 01:04:40;;;;;;;14.55;13.05;;;22.60;99.90;;;;;;5062161;28;20063;-61
2022/07/25 01:07:08;;;;;;;14.82;13.20;;;22.60;99.90;;;;;;5062215;28;20060;-61
2022/07/25 01:09:36;;;;;;;14.40;13.00;;;22.60;99.90;;;;;;5058861;28;20133;-64
2022/07/25 01:12:03;;;;;;;13.85;12.55;;;22.60;99.90;;;;;;5067633;28;20585;-62
2022/07/25 01:14:37;;;;;;;14.85;13.32;;;22.60;99.90;;;;;;5059072;28;20076;-60
2022/07/25 01:17:05;;;;;;;14.38;12.80;;;22.60;99.90;;;;;;5065762;28;20032;-61
2022/07/25 01:19:32;;;;;;;14.38;12.98;;;22.60;99.90;;;;;;5062230;28;20059;-61
2022/07/25 01:21:59;;;;;;;14.40;12.98;;;22.50;99.90;;;;;;5058494;28;20056;-62
2022/07/25 01:24:28;;;;;;;14.70;12.35;;;22.50;99.90;;;;;;5069241;28;20701;-60
2022/07/25 01:26:55;;;;;;;14.48;13.05;;;22.50;99.90;;;;;;5068853;28;20143;-61
2022/07/25 01:29:22;;;;;;;14.38;12.88;;;22.50;99.90;;;;;;5069809;28;20550;-61
2022/07/25 01:31:50;;;;;;;13.90;12.50;;;22.50;99.90;;;;;;5055015;28;20043;-63
2022/07/25 01:34:17;;;;;;;13.68;12.32;;;22.40;99.90;;;;;;5069222;28;20119;-61
2022/07/25 01:36:44;;;;;;;13.50;12.23;;;22.40;99.90;;;;;;5057936;28;20067;-62
2022/07/25 01:39:12;;;;;;;14.93;13.27;;;22.40;99.90;;;;;;5069832;28;20522;-61
2022/07/25 01:41:39;;;;;;;15.25;13.63;;;22.40;99.90;;;;;;5057811;28;20037;-61
2022/07/25 01:44:06;;;;;;;15.00;13.25;;;22.40;99.90;;;;;;5055246;28;20059;-63
2022/07/25 01:46:34;;;;;;;15.00;13.55;;;22.40;99.90;;;;;;5062212;28;20052;-61
2022/07/25 01:49:02;;;;;;;14.13;12.73;;;22.40;99.90;;;;;;5059430;28;20126;-61
2022/07/25 01:51:29;;;;;;;14.25;12.85;;;22.40;99.90;;;;;;5063404;28;20495;-61
2022/07/25 01:53:56;;;;;;;14.15;12.55;;;22.30;99.90;;;;;;5061338;28;20040;-61
2022/07/25 01:56:24;;;;;;;14.63;13.23;;;22.30;99.90;;;;;;5068248;28;20056;-61
2022/07/25 01:58:51;;;;;;;14.50;13.10;;;22.30;99.90;;;;;;5055539;28;20044;-61
2022/07/25 02:01:18;;;;;;;13.82;12.48;;;22.20;99.90;;;;;;5068739;28;20551;-62
2022/07/25 02:03:49;;;;;;;14.00;12.68;;;22.20;99.90;;;;;;5054343;28;20083;-61
2022/07/25 02:06:17;;;;;;;14.13;12.63;;;22.20;99.90;;;;;;5060423;28;20155;-61
2022/07/25 02:08:44;;;;;;;15.60;13.95;;;22.20;99.90;;;;;;5066033;28;20535;-62
2022/07/25 02:11:12;;;;;;;14.50;13.10;;;22.10;99.90;;;;;;5059100;28;20055;-62
2022/07/25 02:13:39;;;;;;;14.73;13.23;;;22.10;99.90;;;;;;5067847;28;20118;-61
2022/07/25 02:16:06;;;;;;;15.40;13.68;;;22.10;99.90;;;;;;5068137;28;20044;-61
2022/07/25 02:18:34;;;;;;;14.55;13.18;;;22.10;99.90;;;;;;5064782;28;20150;-62
2022/07/25 02:21:05;;;;;;;13.50;12.25;;;22.00;99.90;;;;;;5063460;28;20573;-61
2022/07/25 02:23:41;;;;;;;14.60;13.07;;;22.00;99.90;;;;;;5063396;28;20110;-62
2022/07/25 02:26:09;;;;;;;15.43;13.93;;;22.00;99.90;;;;;;5060467;28;20056;-61
2022/07/25 02:28:36;;;;;;;14.18;12.20;;;22.00;99.90;;;;;;5063025;28;20048;-61
2022/07/25 02:31:03;;;;;;;14.10;12.70;;;22.00;99.90;;;;;;5064619;28;20099;-61
2022/07/25 02:33:31;;;;;;;14.07;12.77;;;21.90;99.90;;;;;;5055953;28;20037;-62
2022/07/25 02:35:58;;;;;;;14.23;12.63;;;21.90;99.90;;;;;;5062302;28;20049;-61
2022/07/25 02:38:26;;;;;;;14.35;12.93;;;21.90;99.90;;;;;;5066159;28;20053;-61
2022/07/25 02:40:53;;;;;;;13.48;12.27;;;21.80;99.90;;;;;;5065720;28;20041;-60
2022/07/25 02:43:21;;;;;;;14.55;13.13;;;21.80;99.90;;;;;;5068201;28;20045;-60
2022/07/25 02:45:49;;;;;;;15.25;13.85;;;21.80;99.90;;;;;;5067872;28;20139;-63
2022/07/25 02:48:16;;;;;;;13.90;12.60;;;21.80;99.90;;;;;;5063575;28;20044;-60
2022/07/25 02:50:43;;;;;;;15.20;13.40;;;21.70;99.90;;;;;;5068291;28;20108;-61
2022/07/25 02:53:11;;;;;;;15.23;13.57;;;21.70;99.90;;;;;;5063129;28;20460;-65
2022/07/25 02:55:38;;;;;;;15.30;13.65;;;21.70;99.90;;;;;;5067355;28;20606;-65
2022/07/25 02:58:05;;;;;;;13.95;12.65;;;21.60;99.90;;;;;;5067848;28;20036;-65
2022/07/25 03:00:33;;;;;;;14.93;13.48;;;21.60;99.90;;;;;;5068495;28;20132;-67
2022/07/25 03:03:00;;;;;;;14.88;13.38;;;21.50;99.90;;;;;;5065392;28;20498;-64
2022/07/25 03:05:30;;;;;;;14.38;12.93;;;21.50;99.90;;;;;;5066635;28;20502;-64
2022/07/25 03:07:57;;;;;;;14.48;12.98;;;21.50;99.90;;;;;;5067660;28;20414;-65
2022/07/25 03:10:24;;;;;;;17.42;14.18;;;21.50;99.90;;;;;;5065828;28;20419;-64
2022/07/25 03:12:52;;;;;;;15.15;13.05;;;21.40;99.90;;;;;;5058229;28;20047;-65
2022/07/25 03:15:19;;;;;;;16.77;14.27;;;21.40;99.90;;;;;;5067253;28;20045;-66
2022/07/25 03:17:46;;;;;;;15.23;13.75;;;21.40;99.90;;;;;;5067898;28;20059;-65
2022/07/25 03:20:14;;;;;;;15.05;13.55;;;21.40;99.90;;;;;;5068285;28;20044;-65
2022/07/25 03:22:41;;;;;;;14.85;13.50;;;21.40;99.90;;;;;;5068437;28;20498;-64
2022/07/25 03:25:09;;;;;;;15.25;13.82;;;21.30;99.90;;;;;;5067838;28;20068;-64
2022/07/25 03:27:47;;;;;;;14.52;13.02;;;21.30;99.90;;;;;;5051803;28;20116;-64
2022/07/25 03:30:14;;;;;;;15.38;13.88;;;21.30;99.90;;;;;;5068059;28;20071;-65
2022/07/25 03:32:42;;;;;;;15.75;14.25;;;21.30;99.90;;;;;;5051674;28;20551;-67
2022/07/25 03:35:09;;;;;;;15.80;14.10;;;21.30;99.90;;;;;;5056312;28;20139;-65
2022/07/25 03:37:36;;;;;;;16.08;14.30;;;21.30;99.90;;;;;;5064421;28;20952;-64
2022/07/25 03:40:05;;;;;;;17.15;14.00;;;21.30;99.90;;;;;;5059032;28;20067;-65
2022/07/25 03:42:32;;;;;;;16.08;14.48;;;21.30;99.90;;;;;;5066587;28;20051;-65
2022/07/25 03:45:02;;;;;;;17.30;14.45;;;21.30;99.90;;;;;;5055251;28;20097;-64
2022/07/25 03:47:29;;;;;;;16.73;15.13;;;21.30;99.90;;;;;;5062034;28;20053;-65
2022/07/25 03:49:56;;;;;;;16.50;14.80;;;21.30;99.90;;;;;;5054017;28;20043;-64
2022/07/25 03:52:24;;;;;;;16.23;14.55;;;21.30;99.90;;;;;;5060063;28;20071;-64
2022/07/25 03:54:51;;;;;;;16.08;14.48;;;21.40;99.90;;;;;;5064735;28;20571;-65
2022/07/25 03:57:18;;;;;;;16.10;14.43;;;21.40;99.90;;;;;;5071923;28;20868;-64
2022/07/25 03:59:45;;;;;;;15.63;14.10;;;21.40;99.90;;;;;;5067352;28;20476;-64
2022/07/25 04:02:13;;;;;;;15.40;13.90;;;21.50;99.90;;;;;;5071360;28;20033;-64
2022/07/25 04:04:40;;;;;;;16.40;13.68;;;21.50;99.90;;;;;;5056546;28;20687;-64
2022/07/25 04:07:08;;;;;;;16.67;14.25;;;21.50;99.90;;;;;;5070662;28;20050;-64
2022/07/25 04:09:36;;;;;;;16.48;14.65;;;21.60;99.90;;;;;;5069189;28;20109;-65
2022/07/25 04:12:04;;;;;;;15.65;12.90;;;21.60;99.90;;;;;;5069009;28;20403;-64
2022/07/25 04:14:31;;;;;;;15.10;13.63;;;21.70;99.90;;;;;;5070188;28;20514;-64
2022/07/25 04:16:58;;;;;;;15.00;13.40;;;21.70;99.90;;;;;;5065670;28;20102;-64
2022/07/25 04:19:26;;;;;;;16.13;14.45;;;21.80;99.90;;;;;;5062852;28;20045;-65
2022/07/25 04:21:55;;;;;;;15.48;13.98;;;21.80;99.90;;;;;;5066059;28;20045;-65
2022/07/25 04:24:22;;;;;;;16.15;13.98;;;21.90;99.90;;;;;;5066291;28;20044;-64
2022/07/25 04:26:49;;;;;;;17.50;14.35;;;21.90;99.90;;;;;;5064753;28;20527;-65
2022/07/25 04:29:17;;;;;;;16.15;14.65;;;21.90;99.90;;;;;;5060934;28;20535;-64
2022/07/25 04:31:44;;;;;;;16.00;14.18;;;22.00;99.90;;;;;;5067348;28;20107;-64
2022/07/25 04:34:11;;;;;;;16.58;14.93;;;21.90;99.90;;;;;;5070058;28;20056;-65
2022/07/25 04:36:39;;;;;;;17.77;15.27;;;22.00;99.90;;;;;;5068452;28;20142;-66
2022/07/25 04:39:07;;;;;;;16.80;15.07;;;22.00;99.90;;;;;;5063604;28;20037;-65
2022/07/25 04:41:34;;;;;;;17.77;14.95;;;22.10;99.90;;;;;;5068728;28;20039;-65
2022/07/25 04:44:01;;;;;;;17.17;15.00;;;22.10;99.90;;;;;;5060879;28;20056;-65
2022/07/25 04:46:29;;;;;;;16.40;14.80;;;22.10;99.90;;;;;;5068604;28;20051;-65
2022/07/25 04:48:56;;;;;;;16.50;14.80;;;22.10;99.90;;;;;;5068346;28;20040;-65
2022/07/25 04:51:24;;;;;;;17.38;15.23;;;22.20;99.90;;;;;;5070402;28;20060;-65
2022/07/25 04:53:51;;;;;;;18.17;15.45;;;22.20;99.90;;;;;;5068204;28;20045;-65
2022/07/25 04:56:18;;;;;;;16.77;15.07;;;22.20;99.90;;;;;;5069085;28;20512;-65
2022/07/25 04:58:46;;;;;;;16.63;14.93;;;22.30;99.90;;;;;;5069929;28;20040;-66
2022/07/25 05:01:13;;;;;;;17.13;15.40;;;22.30;99.90;;;;;;5060502;28;20538;-65
2022/07/25 05:03:41;;;;;;;17.85;16.10;;;22.30;99.90;;;;;;5064200;28;20040;-65
2022/07/25 05:06:17;;;;;;;16.52;14.73;;;22.40;99.90;;;;;;5061209;28;20060;-65
2022/07/25 05:08:45;;;;;;;17.08;15.32;;;22.40;99.90;;;;;;5068054;28;20499;-65
2022/07/25 05:11:12;;;;;;;16.38;14.75;;;22.50;99.90;;;;;;5069173;28;20467;-65
2022/07/25 05:13:39;;;;;;;17.00;15.50;;;22.50;99.90;;;;;;5070399;28;20123;-66
2022/07/25 05:16:07;;;;;;;16.70;15.00;;;22.50;99.90;;;;;;5062473;28;20044;-64
2022/07/25 05:18:34;;;;;;;16.92;15.18;;;22.60;99.90;;;;;;5062650;28;20487;-64
2022/07/25 05:21:01;;;;;;;16.95;15.02;;;22.60;99.90;;;;;;5056573;28;20033;-64
2022/07/25 05:23:29;;;;;;;16.35;14.75;;;22.60;99.90;;;;;;5068470;28;20044;-66
2022/07/25 05:25:56;;;;;;;17.20;15.00;;;22.70;99.90;;;;;;5069366;28;20060;-65
2022/07/25 05:28:23;;;;;;;18.52;15.20;;;22.70;99.90;;;;;;5062068;28;20135;-65
2022/07/25 05:30:51;;;;;;;16.83;14.68;;;22.80;99.90;;;;;;5068505;28;20079;-64
2022/07/25 05:33:18;;;;;;;15.85;14.25;;;22.80;99.90;;;;;;5049233;28;20522;-64
2022/07/25 05:35:45;;;;;;;16.83;15.32;;;22.90;99.90;;;;;;5049187;28;20144;-64
2022/07/25 05:38:12;;;;;;;15.80;14.10;;;23.00;99.90;;;;;;5068481;28;20036;-65
2022/07/25 05:40:40;;;;;;;18.58;14.35;;;23.10;99.90;;;;;;5068818;28;20455;-65
2022/07/25 05:43:08;;;;;;;18.73;14.30;;;23.10;99.90;;;;;;5070326;28;20407;-66
2022/07/25 05:45:35;;;;;;;16.17;14.13;;;23.20;99.90;;;;;;5057657;28;20823;-65
2022/07/25 05:48:02;;;;;;;15.75;14.25;;;23.20;99.90;;;;;;5068803;28;20339;-65
2022/07/25 05:50:30;;;;;;;17.00;14.30;;;23.30;99.90;;;;;;5058147;28;20576;-64
2022/07/25 05:52:57;;;;;;;15.10;13.70;;;23.40;99.90;;;;;;5069155;28;20048;-64
2022/07/25 05:55:24;;;;;;;14.88;13.38;;;23.50;99.90;;;;;;5069004;28;20048;-65
2022/07/25 05:57:52;;;;;;;14.60;13.13;;;23.60;99.90;;;;;;5064349;28;20131;-64
2022/07/25 06:00:19;;;;;;;15.75;13.05;;;23.70;99.90;;;;;;5064408;28;20047;-64
2022/07/25 06:02:46;;;;;;;14.57;13.05;;;23.80;99.90;;;;;;5060044;28;20048;-65
2022/07/25 06:05:14;;;;;;;14.18;12.88;;;23.90;99.90;;;;;;5060206;28;20033;-64
2022/07/25 06:07:41;;;;;;;13.90;12.50;;;23.90;99.90;;;;;;5067761;28;20098;-64
2022/07/25 06:10:09;;;;;;;14.10;12.80;;;24.00;99.90;;;;;;5054972;28;20475;-65
2022/07/25 06:12:36;;;;;;;13.55;12.35;;;24.20;99.90;;;;;;5067985;28;20135;-65
2022/07/25 06:15:05;;;;;;;14.95;12.77;;;24.30;99.90;;;;;;5066140;28;20044;-64
2022/07/25 06:17:32;;;;;;;13.80;12.48;;;24.40;99.90;;;;;;5063801;28;20065;-65
2022/07/25 06:19:59;;;;;;;14.07;11.75;;;24.50;99.90;;;;;;5061002;28;20036;-65
2022/07/25 06:22:28;;;;;;;14.93;12.82;;;24.60;99.90;;;;;;5067640;28;20059;-65
2022/07/25 06:24:55;;;;;;;14.63;13.15;;;24.60;99.90;;;;;;5062261;28;20578;-65
2022/07/25 06:27:23;;;;;;;14.68;11.70;;;24.70;99.90;;;;;;5068772;28;20145;-64
2022/07/25 06:29:55;;;;;;;14.82;13.30;;;24.80;99.90;;;;;;5068493;28;20140;-65
2022/07/25 06:32:23;;;;;;;14.20;12.80;;;24.90;99.90;;;;;;5054755;28;20049;-65
2022/07/25 06:34:50;;;;;;;14.93;13.35;;;25.00;99.90;;;;;;5066705;28;20040;-65
2022/07/25 06:37:17;;;;;;;13.70;12.38;;;25.10;99.90;;;;;;5067446;28;20134;-66
2022/07/25 06:39:45;;;;;;;13.25;11.95;;;25.20;99.90;;;;;;5064704;28;20036;-66
2022/07/25 06:42:12;;;;;;;13.60;12.30;;;25.30;99.90;;;;;;5059035;28;20098;-65
2022/07/25 06:44:40;;;;;;;13.43;12.13;;;25.40;99.90;;;;;;5059517;28;20049;-65
2022/07/25 06:47:11;;;;;;;12.90;11.75;;;25.50;99.90;;;;;;5067406;28;20037;-65
2022/07/25 06:49:41;;;;;;;;;;;25.60;99.90;;;;;;5063180;28;20036;-65
2022/07/25 06:52:09;;;;;;;14.60;13.25;;;25.70;99.90;;;;;;5067389;28;19966;-65
2022/07/25 06:54:36;;;;;;;14.88;13.48;;;25.80;99.90;;;;;;5064094;28;20044;-65
2022/07/25 06:57:04;;;;;;;13.82;12.45;;;25.90;99.90;;;;;;5067279;28;20051;-66
2022/07/25 06:59:32;;;;;;;14.88;13.35;;;26.00;99.90;;;;;;5059471;28;20058;-66
2022/07/25 07:02:00;;;;;;;13.60;12.40;;;26.10;99.90;;;;;;5067895;28;20040;-65
2022/07/25 07:04:27;;;;;;;14.60;13.30;;;26.20;99.90;;;;;;5054986;28;20743;-65
2022/07/25 07:06:54;;;;;;;15.57;13.63;;;26.30;99.90;;;;;;5063555;28;20044;-66
2022/07/25 07:09:21;;;;;;;14.35;13.05;;;26.40;99.90;;;;;;5065669;28;20080;-66
2022/07/25 07:11:49;;;;;;;17.40;13.50;;;26.50;99.90;;;;;;5068170;28;20485;-66
2022/07/25 07:14:16;;;;;;;14.48;13.10;;;26.60;99.90;;;;;;5055916;28;20057;-66
2022/07/25 07:16:43;;;;;;;14.45;13.05;;;26.70;99.90;;;;;;5067554;28;20048;-66
2022/07/25 07:19:13;;;;;;;13.95;12.55;;;26.80;99.90;;;;;;5067732;28;20033;-66
2022/07/25 07:21:42;;;;;;;13.57;11.70;;;26.90;99.90;;;;;;5061264;28;20048;-66
2022/07/25 07:24:10;;;;;;;13.25;11.95;;;27.00;99.90;;;;;;5066834;28;20157;-66
2022/07/25 07:26:52;;;;;;;17.27;11.90;;;27.10;99.90;;;;;;5067593;28;20512;-66
2022/07/25 07:29:19;;;;;;;13.40;12.13;;;27.20;99.90;;;;;;5064691;28;20539;-66
2022/07/25 07:31:47;;;;;;;16.77;15.02;;;27.20;99.90;;;;;;5066872;28;20139;-68
2022/07/25 07:34:15;;;;;;;12.82;11.65;;;27.40;99.90;;;;;;5065165;28;20462;-66
2022/07/25 07:36:42;;;;;;;12.75;11.55;;;27.50;99.90;;;;;;5048798;28;20044;-66
2022/07/25 07:39:10;;;;;;;13.10;11.82;;;27.50;99.90;;;;;;5059790;28;20044;-66
2022/07/25 07:41:38;;;;;;;12.93;11.77;;;27.60;99.90;;;;;;5055534;28;20390;-66
2022/07/25 07:44:05;;;;;;;12.45;11.30;;;27.60;99.90;;;;;;5066526;28;20047;-66
2022/07/25 07:46:32;;;;;;;12.82;11.82;;;27.70;99.90;;;;;;5067173;28;20064;-66
2022/07/25 07:49:00;;;;;;;12.63;11.32;;;27.80;99.90;;;;;;5058029;28;20083;-65
2022/07/25 07:51:27;;;;;;;12.73;11.40;;;27.80;99.90;;;;;;5049626;28;20162;-66
2022/07/25 07:56:40;;;;;;;13.00;11.80;;;28.00;99.90;;;;;;5064132;28;20552;-66
2022/07/25 07:59:08;;;;;;;13.10;11.80;;;28.10;99.90;;;;;;5055595;28;20043;-66
2022/07/25 08:01:36;;;;;;;12.63;11.15;;;28.30;99.90;;;;;;5054813;28;20597;-65
2022/07/25 08:04:03;;;;;;;12.45;11.18;;;28.40;99.90;;;;;;5055932;28;20137;-65
2022/07/25 08:06:31;;;;;;;11.10;10.10;;;28.50;99.90;;;;;;5061802;28;20068;-65
2022/07/25 08:08:58;;;;;;;13.48;11.50;;;28.50;99.90;;;;;;5050904;28;20051;-65
2022/07/25 08:11:25;;;;;;;11.10;10.18;;;28.60;99.90;;;;;;5058210;28;20048;-65
2022/07/25 08:13:53;;;;;;;14.48;10.88;;;28.70;99.90;;;;;;5047605;28;20144;-66
2022/07/25 08:16:20;;;;;;;11.77;10.68;;;28.80;99.90;;;;;;5059947;28;20151;-65
2022/07/25 08:18:47;;;;;;;12.23;11.02;;;28.90;99.90;;;;;;5066752;28;20109;-66
2022/07/25 08:21:14;;;;;;;13.27;10.57;;;28.90;99.90;;;;;;5066896;28;20047;-65
2022/07/25 08:23:44;;;;;;;12.65;11.43;;;29.00;99.90;;;;;;5055848;28;20060;-65
2022/07/25 08:26:13;;;;;;;11.95;10.95;;;29.10;99.90;;;;;;5056865;28;20106;-65
2022/07/25 08:28:40;;;;;;;12.10;11.05;;;29.20;99.90;;;;;;5059737;28;20060;-66
2022/07/25 08:31:08;;;;;;;12.00;10.75;;;29.30;99.90;;;;;;5062424;28;20409;-65
2022/07/25 08:33:36;;;;;;;12.00;10.77;;;29.40;99.90;;;;;;5065754;28;20044;-65
2022/07/25 08:36:04;;;;;;;12.63;11.20;;;29.50;99.90;;;;;;5065533;28;20161;-65
2022/07/25 08:38:31;;;;;;;11.13;10.13;;;29.60;99.90;;;;;;5060264;28;20041;-65
2022/07/25 08:40:58;;;;;;;12.15;10.88;;;29.70;99.90;;;;;;5063916;28;20517;-65
2022/07/25 08:43:28;;;;;;;11.90;10.80;;;29.80;99.90;;;;;;5069733;28;20051;-65
2022/07/25 08:45:56;;;;;;;11.48;10.38;;;29.90;99.90;;;;;;5070444;28;20045;-67
2022/07/25 08:48:25;;;;;;;11.88;10.65;;;30.00;99.90;;;;;;5059074;28;20548;-65
2022/07/25 08:50:55;;;;;;;11.48;10.38;;;30.20;99.90;;;;;;5070433;28;20120;-65
2022/07/25 08:53:24;;;;;;;12.00;10.82;;;30.20;99.90;;;;;;5058771;28;20098;-66
2022/07/25 08:56:03;;;;;;;11.55;10.38;;;30.30;99.40;;;;;;5069537;28;20491;-66
2022/07/25 08:58:38;;;;;;;12.15;11.05;;;30.40;98.90;;;;;;5070283;28;20044;-65
2022/07/25 09:01:06;;;;;;;12.07;10.90;;;30.40;98.60;;;;;;5060151;28;20037;-65
2022/07/25 09:03:35;;;;;;;12.68;11.48;;;30.50;97.40;;;;;;5064361;28;20048;-66
2022/07/25 09:06:15;;;;;;;13.02;11.68;;;30.40;97.30;;;;;;5066047;28;20045;-66
2022/07/25 09:08:58;;;;;;;14.27;12.88;;;30.40;97.10;;;;;;5067266;28;20687;-65
2022/07/25 09:11:26;;;;;;;12.02;10.90;;;30.50;96.90;;;;;;5063123;28;20414;-65
2022/07/25 09:13:59;;;;;;;13.52;11.77;;;30.60;96.80;;;;;;5064926;28;20045;-65
2022/07/25 09:16:31;;;;;;;12.38;11.25;;;30.60;96.50;;;;;;5061446;28;20106;-65
2022/07/25 09:19:25;;;;;;;12.68;11.57;;;30.60;96.50;;;;;;5065434;28;20045;-64
2022/07/25 09:22:04;;;;;;;12.63;11.40;;;30.80;96.40;;;;;;5065443;28;20076;-65
2022/07/25 09:24:34;;;;;;;12.88;11.75;;;30.80;96.10;;;;;;5064218;28;20056;-65
2022/07/25 09:27:09;;;;;;;15.20;12.55;;;30.80;96.30;;;;;;5069976;28;20140;-67
2022/07/25 09:29:41;;;;;;;13.48;12.13;;;31.00;96.40;;;;;;5069480;28;20578;-64
2022/07/25 09:32:17;;;;;;;14.00;12.63;;;31.10;96.20;;;;;;5058363;28;20419;-64
2022/07/25 09:34:47;;;;;;;13.73;12.45;;;31.00;96.10;;;;;;5068933;28;20123;-64
2022/07/25 09:37:18;;;;;;;14.05;12.05;;;31.10;96.10;;;;;;5058233;28;20065;-65
2022/07/25 09:39:50;;;;;;;13.48;12.27;;;31.30;95.80;;;;;;5054286;28;20126;-65
2022/07/25 09:42:22;;;;;;;13.38;12.15;;;31.40;95.70;;;;;;5057730;28;20080;-66
2022/07/25 09:45:16;;;;;;;12.70;11.50;;;31.60;95.30;;;;;;5066981;28;20051;-65
2022/07/25 09:47:54;;;;;;;12.98;11.77;;;31.60;95.20;;;;;;5068639;28;20664;-66
2022/07/25 09:50:24;;;;;;;14.63;12.07;;;31.80;95.00;;;;;;5066483;28;20127;-65
2022/07/25 09:52:53;;;;;;;13.75;12.45;;;31.60;94.90;;;;;;5035097;28;20052;-66
2022/07/25 09:55:21;;;;;;;13.30;12.20;;;31.80;94.90;;;;;;5065686;28;20511;-65
2022/07/25 09:57:51;;;;;;;13.40;12.30;;;32.00;94.70;;;;;;5068546;28;20155;-66
2022/07/25 10:00:22;;;;;;;13.48;12.18;;;32.10;94.00;;;;;;5067973;28;20068;-65
2022/07/25 10:03:08;;;;;;;13.27;12.25;;;32.30;93.60;;;;;;5067976;28;20425;-65
2022/07/25 10:06:13;;;;;;;15.10;12.57;;;32.50;93.10;;;;;;5055635;28;20097;-65
2022/07/25 10:08:41;;;;;;;13.55;12.35;;;32.50;92.90;;;;;;5066957;28;20525;-65
2022/07/25 10:11:24;;;;;;;13.20;12.00;;;32.50;92.80;;;;;;5053531;28;20399;-65
2022/07/25 10:13:53;;;;;;;13.20;12.10;;;32.40;92.70;;;;;;5061980;28;20037;-65
2022/07/25 10:16:22;;;;;;;13.40;12.20;;;32.40;92.60;;;;;;5060096;28;20044;-66
2022/07/25 10:18:53;;;;;;;12.98;11.85;;;32.40;92.40;;;;;;5065830;28;20424;-65
2022/07/25 10:21:23;;;;;;;13.52;12.27;;;32.70;92.00;;;;;;5059557;28;20490;-64
2022/07/25 10:24:04;;;;;;;13.82;12.52;;;32.90;91.80;;;;;;5051771;28;20729;-66
2022/07/25 10:26:35;;;;;;;13.45;12.25;;;33.10;91.60;;;;;;5068381;28;20143;-65
2022/07/25 10:29:10;;;;;;;13.15;11.80;;;33.10;91.40;;;;;;5068932;28;20047;-66
2022/07/25 10:31:43;;;;;;;13.30;12.10;;;33.30;91.20;;;;;;5061517;28;20131;-67
2022/07/25 10:34:30;;;;;;;13.43;12.00;;;33.40;91.00;;;;;;5064165;28;20511;-65
2022/07/25 10:37:12;;;;;;;13.43;12.33;;;33.50;90.70;;;;;;5054450;28;20048;-66
2022/07/25 10:39:43;;;;;;;13.75;12.45;;;33.60;90.70;;;;;;5065488;28;20033;-67
2022/07/25 10:42:16;;;;;;;13.45;12.27;;;33.80;90.50;;;;;;5068195;28;20441;-65
2022/07/25 10:44:46;;;;;;;13.50;12.02;;;34.00;90.20;;;;;;5067554;28;20059;-65
2022/07/25 10:47:15;;;;;;;13.38;12.20;;;34.00;90.10;;;;;;5057543;28;20044;-66
2022/07/25 10:49:48;;;;;;;12.30;11.27;;;34.20;89.10;;;;;;5062744;28;20509;-67
2022/07/25 10:52:41;;;;;;;12.63;11.43;;;34.20;89.00;;;;;;5060176;28;20617;-65
2022/07/25 10:55:08;;;;;;;12.18;11.07;;;34.40;88.90;;;;;;5065693;28;20541;-66
2022/07/25 10:57:36;;;;;;;14.02;11.48;;;34.50;88.40;;;;;;5067570;28;20128;-66
2022/07/25 11:00:24;;;;;;;11.35;10.35;;;34.40;87.60;;;;;;5069375;28;20131;-68
2022/07/25 11:02:56;;;;;;;11.10;10.18;;;34.20;86.00;;;;;;5060656;28;20076;-68
2022/07/25 11:05:24;;;;;;;13.15;10.50;;;34.40;85.80;;;;;;5059286;28;20090;-67
2022/07/25 11:07:52;;;;;;;9.93;9.13;;;34.60;85.00;;;;;;5068937;28;20045;-65
2022/07/25 11:10:45;;;;;;;10.90;9.57;;;34.70;82.80;;;;;;5067354;28;20049;-66
2022/07/25 11:13:16;;;;;;;9.52;8.73;;;34.70;81.60;;;;;;5067858;28;20483;-66
2022/07/25 11:15:44;;;;;;;10.40;9.50;;;34.70;80.50;;;;;;5067265;28;20522;-67
2022/07/25 11:18:12;;;;;;;10.27;9.38;;;34.60;81.00;;;;;;5065827;28;20099;-66
2022/07/25 11:20:40;;;;;;;10.95;9.82;;;34.90;81.10;;;;;;5068684;28;20055;-65
2022/07/25 11:23:07;;;;;;;10.77;9.88;;;35.20;80.80;;;;;;5068470;28;20036;-64
2022/07/25 11:25:35;;;;;;;11.23;10.15;;;35.60;80.50;;;;;;5066127;28;20041;-65
2022/07/25 11:28:03;;;;;;;11.93;10.73;;;35.50;80.90;;;;;;5065585;28;20067;-65
2022/07/25 11:30:31;;;;;;;12.48;11.35;;;35.50;81.40;;;;;;5064410;28;20036;-66
2022/07/25 11:33:02;;;;;;;11.50;10.48;;;35.70;81.10;;;;;;5050499;28;20064;-66
2022/07/25 11:35:32;;;;;;;12.10;10.90;;;35.80;80.90;;;;;;5065052;28;20045;-66
2022/07/25 11:38:01;;;;;;;12.90;11.73;;;35.90;80.30;;;;;;5066910;28;20383;-66
2022/07/25 11:40:31;;;;;;;12.57;11.55;;;35.70;80.40;;;;;;5067076;28;20045;-66
2022/07/25 11:43:00;;;;;;;12.45;11.38;;;36.10;79.50;;;;;;5063966;28;20049;-66
2022/07/25 11:45:35;;;;;;;12.90;11.68;;;36.40;77.50;;;;;;5064262;28;20410;-65
2022/07/25 11:48:12;;;;;;;11.73;10.73;;;36.20;77.50;;;;;;5065902;28;20529;-65
2022/07/25 11:50:43;;;;;;;11.93;10.73;;;36.40;75.80;;;;;;5051384;28;20500;-65
2022/07/25 11:53:13;;;;;;;11.65;10.65;;;36.30;75.30;;;;;;5055116;28;20045;-66
2022/07/25 11:55:42;;;;;;;11.68;10.75;;;36.90;74.40;;;;;;5067723;28;20083;-67
2022/07/25 11:58:11;;;;;;;12.32;11.05;;;36.60;71.90;;;;;;5067001;28;20131;-67
2022/07/25 12:00:45;;;;;;;11.40;10.45;;;36.50;72.10;;;;;;5067055;28;20534;-66
2022/07/25 12:03:15;;;;;;;12.25;11.15;;;36.50;71.80;;;;;;5061475;28;20609;-65
2022/07/25 12:05:47;;;;;;;11.65;10.73;;;36.70;71.20;;;;;;5050016;28;20048;-66
2022/07/25 12:08:18;;;;;;;11.55;10.65;;;36.80;69.80;;;;;;5058075;28;20072;-66
2022/07/25 12:10:46;;;;;;;12.55;11.55;;;37.00;70.20;;;;;;5052279;28;20483;-66
2022/07/25 12:13:27;;;;;;;12.80;11.60;;;37.00;71.70;;;;;;5054017;28;20068;-67
2022/07/25 12:15:56;;;;;;;13.70;11.90;;;37.30;71.60;;;;;;5048262;28;20064;-67
2022/07/25 12:18:24;;;;;;;12.20;11.23;;;37.60;71.50;;;;;;5060210;28;20464;-66
2022/07/25 12:20:52;;;;;;;12.68;11.57;;;38.20;70.00;;;;;;5064563;28;20390;-66
2022/07/25 12:23:20;;;;;;;12.30;11.30;;;38.30;69.00;;;;;;5067655;28;20048;-65
2022/07/25 12:25:48;;;;;;;11.90;11.00;;;38.90;67.90;;;;;;5071261;28;20101;-66
2022/07/25 12:28:16;;;;;;;12.77;11.75;;;38.50;67.30;;;;;;5061391;28;20052;-65
2022/07/25 12:30:44;;;;;;;12.50;11.50;;;39.00;66.50;;;;;;5067376;28;20049;-66
2022/07/25 12:33:12;;;;;;;12.30;11.25;;;39.70;66.50;;;;;;5057240;28;20048;-66
2022/07/25 12:35:40;;;;;;;11.60;10.70;;;40.20;63.70;;;;;;5068161;28;20084;-65
2022/07/25 12:38:09;;;;;;;12.40;11.30;;;40.50;63.80;;;;;;5068125;28;20518;-64
2022/07/25 12:40:37;;;;;;;14.10;12.45;;;40.60;63.40;;;;;;5070516;28;20054;-66